SABE

Jorge Newbery Airpark Airport

Buenos Aires, Argentina
TAF SABE 172300Z 1800/1824 10010KT 9999 FEW050TCU BKN100 TX24/1819Z TN16/1808Z PROB30 TEMPO 1801/1803 11015KT 8000 -SHRA SCT030 FEW040CB BKN050 BECMG 1804/1806 18015KT 9999 SCT030 BKN200 BECMG 1810/1812 14010KT BKN020 SCT100 BECMG 1814/1816 10015KT
Issued Valid From Valid To
Oct-17 @ 23:00 UTC
(2 hours ago)
Oct-18 @ 00:00 UTC
(45 minutes ago)
Oct-19 @ 00:00 UTC
(in 23 hours)
Oct-18 @ 00:00 to Oct-18 @ 04:00
TAF SABE 172300Z 1800/1824 10010KT 9999 FEW050TCU BKN100 TX24/1819Z TN16/1808Z
Wind Visibility Clouds
100° at 10 knots 10,000+ meters
  • Few at 5,000' AGL
  • Broken at 10,000' AGL
Temporary  (Probability 30%) Oct-18 @ 01:00 to Oct-18 @ 03:00
PROB30 TEMPO 1801/1803 11015KT 8000 -SHRA SCT030 FEW040CB BKN050
Wind Visibility Clouds Conditions
110° at 15 knots 7,998 meters
  • Scattered at 3,000' AGL
  • Few at 4,000' AGL
  • Broken at 5,000' AGL
  • Light Rain
Becoming Oct-18 @ 04:00 to Oct-18 @ 10:00
BECMG 1804/1806 18015KT 9999 SCT030 BKN200
Wind Visibility Clouds
180° at 15 knots 10,000+ meters
  • Scattered at 3,000' AGL
  • Broken at 20,000' AGL
Becoming Oct-18 @ 10:00 to Oct-18 @ 14:00
BECMG 1810/1812 14010KT BKN020 SCT100
Wind Visibility Clouds
140° at 10 knots 10,000+ meters
  • Broken at 2,000' AGL
  • Scattered at 10,000' AGL
Becoming Oct-18 @ 14:00 to Oct-19 @ 00:00
BECMG 1814/1816 10015KT
Wind Visibility Clouds
100° at 15 knots 10,000+ meters
  • Broken at 2,000' AGL
  • Scattered at 10,000' AGL
TAF SABE 172300Z 1800/1824 10010KT 9999 FEW050TCU BKN100 TX24/1819Z TN16/1808Z PROB30 TEMPO 1801/1803 11015KT 8000 -SHRA SCT030 FEW040CB BKN050 BECMG 1804/1806 18015KT 9999 SCT030 BKN200 BECMG 1810/1812 14010KT BKN020 SCT100 BECMG 1814/1816 10015KT
Issued Oct-17 @ 23:00 UTC
(2 hours ago)
Valid From Oct-18 @ 00:00 UTC
(45 minutes ago)
Valid To Oct-19 @ 00:00 UTC
(in 23 hours)
Oct-18 @ 00:00 - Oct-18 @ 04:00
Wind Visibility
100° at 10 knots 10,000+ meters
Clouds
  • Few at 5,000' AGL
  • Broken at 10,000' AGL
Probability 30% Temporary Oct-18 @ 01:00 - Oct-18 @ 03:00
Wind Visibility
110° at 15 knots 7,998 meters
Clouds
  • Scattered at 3,000' AGL
  • Few at 4,000' AGL
  • Broken at 5,000' AGL
Conditions
  • Light Rain
Becoming Oct-18 @ 04:00 - Oct-18 @ 10:00
Wind Visibility
180° at 15 knots 10,000+ meters
Clouds
  • Scattered at 3,000' AGL
  • Broken at 20,000' AGL
Becoming Oct-18 @ 10:00 - Oct-18 @ 14:00
Wind Visibility
140° at 10 knots 10,000+ meters
Clouds
  • Broken at 2,000' AGL
  • Scattered at 10,000' AGL
Becoming Oct-18 @ 14:00 - Oct-19 @ 00:00
Wind Visibility
100° at 15 knots 10,000+ meters
Clouds
  • Broken at 2,000' AGL
  • Scattered at 10,000' AGL